Historique des mesures à Cassis (13260), France
Quotidien Résumé Janvier 14, 2017 Unités:  US    Métrique   Métrique/US
« Précédent (Jour)
Suivant (Jour) »
Quotidien Hebdomadaire Mensuel Annuel Période au choix
  Maximum: Minimum: Moyenne:
Température: 32 °F 39.4 °F 41.7 °F
Point de rosée: 32 °F 19 °F 25.2 °F
Humidité: Humidity % 42 % 48 %
Vitesse du vent: WindSpeedKMH mph 5.5 mph 16.1 mph
Rafales: WindSpeedGustKMH mph - -
Vent:- - SSW
Pression: 0 in 29.8 in -
Précipitations: 0 in    
Historical Graphs
 
 
Mesures pour : Janvier 14, 2017
Heure Temperature Point de rosée Pression Vent Vitesse du vent Rafales Humidité Pluie (par heure) Conditions
32 °F 32 °F 0 in Calm     Humidity % 0 in SoftwareType W/m2
00:11 41.9 °F 25.9 °F 29.9 in NNE 5.5 mph 5.8 mph 53 % 0 in open2300-1.11 W/m2
01:10 41.2 °F 26.1 °F 29.9 in WNW 7.9 mph 18.0 mph 55 % 0 in open2300-1.11 W/m2
02:12 41.7 °F 25.9 °F 29.9 in WNW 8.2 mph 8.2 mph 53 % 0 in open2300-1.11 W/m2
03:10 41.9 °F 24.6 °F 29.9 in WNW 13.4 mph 13.4 mph 50 % 0 in open2300-1.11 W/m2
04:11 41 °F 24.6 °F 29.9 in North 18.0 mph 27.4 mph 52 % 0 in open2300-1.11 W/m2
05:10 40.8 °F 24.4 °F 29.9 in NE 5.8 mph 15.8 mph 52 % 0 in open2300-1.11 W/m2
06:11 40.8 °F 24.4 °F 29.9 in NW 18.0 mph 18.0 mph 52 % 0 in open2300-1.11 W/m2
07:10 41.5 °F 26.1 °F 29.9 in NNW 21.6 mph 26.5 mph 54 % 0 in open2300-1.11 W/m2
08:11 41.5 °F 27 °F 29.9 in NNW 13.7 mph 45.7 mph 56 % 0 in open2300-1.11 W/m2
09:10 41.5 °F 27.3 °F 29.9 in NW 25.3 mph 28.8 mph 57 % 0 in open2300-1.11 W/m2
10:11 42.4 °F 28.2 °F 29.9 in NNE 16.9 mph 16.9 mph 57 % 0 in open2300-1.11 W/m2
11:10 43.2 °F 29.3 °F 29.9 in NW 43.1 mph 43.1 mph 58 % 0 in open2300-1.11 W/m2
12:11 44.8 °F 29.1 °F 29.9 in North 21.2 mph 29.4 mph 54 % 0 in open2300-1.11 W/m2
13:10 45.9 °F 29.7 °F 29.8 in North 18.0 mph 25.6 mph 53 % 0 in open2300-1.11 W/m2
14:11 45.7 °F 26.1 °F 29.8 in NNW 18.3 mph 18.3 mph 46 % 0 in open2300-1.11 W/m2
15:10 45.7 °F 25.3 °F 29.8 in NNW 7.6 mph 19.1 mph 45 % 0 in open2300-1.11 W/m2
16:11 45.1 °F 25 °F 29.8 in North 18.7 mph 24.8 mph 45 % 0 in open2300-1.11 W/m2
17:10 43.5 °F 24.1 °F 29.8 in NW 14.8 mph 32.8 mph 46 % 0 in open2300-1.11 W/m2
18:11 42.1 °F 22.1 °F 29.8 in WNW 6.8 mph 32.0 mph 45 % 0 in open2300-1.11 W/m2
19:10 41.2 °F 20.1 °F 29.8 in NNE 27.7 mph 27.7 mph 43 % 0 in open2300-1.11 W/m2
20:11 40.5 °F 19 °F 29.8 in NW 20.9 mph 36.0 mph 42 % 0 in open2300-1.11 W/m2
21:10 40.1 °F 19.8 °F 29.9 in NNW 16.6 mph 18.3 mph 44 % 0 in open2300-1.11 W/m2
22:11 39.6 °F 20.3 °F 29.9 in WNW 25.3 mph 25.3 mph 46 % 0 in open2300-1.11 W/m2
23:10 39.4 °F 21.2 °F 29.9 in North 9.0 mph 19.8 mph 48 % 0 in open2300-1.11 W/m2
Observations météo à CASSIS
WU-History script by Weather Underground - 1 mb